Time,TemperatureF,DewpointF,PressureIn,WindDirection,WindDirectionDegrees,WindSpeedMPH,WindSpeedGustMPH,Humidity,HourlyPrecipIn,Conditions,Clouds,dailyrainin,SoftwareType,DateUTC
2013-06-15 00:05:00,67.3,48.2,29.81,North,0,0.0,0.0,50,0.00,,,0.00,WUHU216HW,2013-06-15 07:05:00,
2013-06-15 00:35:00,65.7,48.6,29.81,ESE,113,0.0,0.0,54,0.00,,,0.00,WUHU216HW,2013-06-15 07:35:00,
2013-06-15 01:04:00,64.4,48.2,29.80,North,0,0.0,0.0,56,0.00,,,0.00,WUHU216HW,2013-06-15 08:04:00,
2013-06-15 01:35:00,63.4,47.8,29.79,North,0,0.0,0.0,57,0.00,,,0.00,WUHU216HW,2013-06-15 08:35:00,
2013-06-15 02:05:00,62.5,47.4,29.79,North,0,0.0,0.0,58,0.00,,,0.00,WUHU216HW,2013-06-15 09:05:00,
2013-06-15 02:35:00,61.7,47.8,29.79,ENE,68,0.0,0.0,60,0.00,,,0.00,WUHU216HW,2013-06-15 09:35:00,
2013-06-15 03:05:00,60.3,47.3,29.79,North,0,0.0,0.0,62,0.00,,,0.00,WUHU216HW,2013-06-15 10:05:00,
2013-06-15 03:35:00,59.9,46.9,29.80,North,0,0.0,0.0,62,0.00,,,0.00,WUHU216HW,2013-06-15 10:35:00,
2013-06-15 04:05:00,60.1,47.1,29.80,North,0,0.0,0.0,62,0.00,,,0.00,WUHU216HW,2013-06-15 11:05:00,
2013-06-15 04:35:00,59.4,46.4,29.80,SE,135,0.0,0.0,62,0.00,,,0.00,WUHU216HW,2013-06-15 11:35:00,
2013-06-15 05:05:00,58.9,45.8,29.81,North,0,0.0,0.0,62,0.00,,,0.00,WUHU216HW,2013-06-15 12:05:00,
2013-06-15 05:35:00,58.7,45.7,29.81,North,0,0.0,0.0,62,0.00,,,0.00,WUHU216HW,2013-06-15 12:35:00,
2013-06-15 06:04:00,58.5,45.6,29.82,North,0,0.0,0.0,62,0.00,,,0.00,WUHU216HW,2013-06-15 13:04:00,
2013-06-15 06:34:00,59.6,47.3,29.83,North,0,0.0,0.0,64,0.00,,,0.00,WUHU216HW,2013-06-15 13:34:00,
2013-06-15 07:04:00,63.0,49.0,29.84,North,0,0.0,0.0,60,0.00,,,0.00,WUHU216HW,2013-06-15 14:04:00,
2013-06-15 07:34:00,67.3,48.6,29.84,SE,135,1.1,1.1,51,0.00,,,0.00,WUHU216HW,2013-06-15 14:34:00,
2013-06-15 08:04:00,70.4,46.2,29.85,SSE,147,3.5,3.8,42,0.00,,,0.00,WUHU216HW,2013-06-15 15:04:00,
2013-06-15 08:09:00,70.4,46.2,29.85,East,90,2.5,3.8,42,0.00,,,0.00,WUHU216HW,2013-06-15 15:09:00,
2013-06-15 08:35:00,72.7,47.6,29.85,SE,135,2.0,2.0,41,0.00,,,0.00,WUHU216HW,2013-06-15 15:35:00,
2013-06-15 09:04:00,76.0,48.4,29.85,SW,225,2.5,2.5,38,0.00,,,0.00,WUHU216HW,2013-06-15 16:04:00,
2013-06-15 09:34:00,79.0,48.1,29.85,SSE,158,4.0,4.0,34,0.00,,,0.00,WUHU216HW,2013-06-15 16:34:00,
2013-06-15 10:04:00,81.0,48.2,29.85,WSW,248,4.0,4.0,32,0.00,,,0.00,WUHU216HW,2013-06-15 17:04:00,
2013-06-15 10:34:00,83.3,50.3,29.85,SW,225,4.0,4.0,32,0.00,,,0.00,WUHU216HW,2013-06-15 17:34:00,
2013-06-15 11:04:00,84.6,50.6,29.85,West,270,2.2,2.2,31,0.00,,,0.00,WUHU216HW,2013-06-15 18:04:00,
2013-06-15 11:35:00,86.9,50.8,29.85,SSE,158,3.1,3.1,29,0.00,,,0.00,WUHU216HW,2013-06-15 18:35:00,
2013-06-15 12:04:00,89.1,48.3,29.85,SSW,203,3.1,3.1,25,0.00,,,0.00,WUHU216HW,2013-06-15 19:04:00,
2013-06-15 12:34:00,90.4,46.2,29.85,WNW,293,5.4,5.4,22,0.00,,,0.00,WUHU216HW,2013-06-15 19:34:00,
2013-06-15 13:04:00,92.2,43.7,29.84,WSW,248,3.8,3.8,19,0.00,,,0.00,WUHU216HW,2013-06-15 20:04:00,
2013-06-15 13:34:00,93.6,44.8,29.84,West,270,2.2,2.2,19,0.00,,,0.00,WUHU216HW,2013-06-15 20:34:00,
2013-06-15 14:04:00,94.7,45.6,29.83,West,270,1.1,1.1,19,0.00,,,0.00,WUHU216HW,2013-06-15 21:04:00,
2013-06-15 14:34:00,95.0,38.9,29.83,NNW,338,1.6,1.6,15,0.00,,,0.00,WUHU216HW,2013-06-15 21:34:00,
2013-06-15 15:04:00,95.8,41.2,29.82,NW,315,5.4,5.4,16,0.00,,,0.00,WUHU216HW,2013-06-15 22:04:00,
2013-06-15 15:34:00,95.9,41.4,29.81,West,270,5.1,5.1,16,0.00,,,0.00,WUHU216HW,2013-06-15 22:34:00,
2013-06-15 16:04:00,95.9,36.0,29.80,NNW,338,2.0,2.0,13,0.00,,,0.00,WUHU216HW,2013-06-15 23:04:00,
2013-06-15 16:34:00,95.2,39.1,29.80,NW,315,4.5,4.5,15,0.00,,,0.00,WUHU216HW,2013-06-15 23:34:00,
2013-06-15 17:04:00,95.4,39.2,29.79,NNW,338,1.1,1.1,15,0.00,,,0.00,WUHU216HW,2013-06-16 00:04:00,
2013-06-15 17:34:00,95.4,39.2,29.79,West,270,4.7,4.7,15,0.00,,,0.00,WUHU216HW,2013-06-16 00:34:00,
2013-06-15 18:04:00,94.7,38.6,29.79,WSW,248,3.8,3.8,15,0.00,,,0.00,WUHU216HW,2013-06-16 01:04:00,
2013-06-15 18:34:00,93.8,37.9,29.79,WSW,248,3.8,3.8,15,0.00,,,0.00,WUHU216HW,2013-06-16 01:34:00,
2013-06-15 19:04:00,92.7,37.1,29.80,WSW,248,3.8,3.8,15,0.00,,,0.00,WUHU216HW,2013-06-16 02:04:00,
2013-06-15 19:34:00,91.4,39.6,29.80,WNW,293,1.1,1.1,17,0.00,,,0.00,WUHU216HW,2013-06-16 02:34:00,
2013-06-15 20:04:00,88.9,42.9,29.80,NW,315,1.8,1.8,20,0.00,,,0.00,WUHU216HW,2013-06-16 03:04:00,
2013-06-15 20:34:00,85.1,42.9,29.81,NNW,338,1.3,1.3,23,0.00,,,0.00,WUHU216HW,2013-06-16 03:34:00,
2013-06-15 21:04:00,82.1,44.5,29.82,NNW,338,0.4,0.4,27,0.00,,,0.00,WUHU216HW,2013-06-16 04:04:00,
2013-06-15 21:34:00,78.8,47.2,29.84,North,0,0.7,0.7,33,0.00,,,0.00,WUHU216HW,2013-06-16 04:34:00,
2013-06-15 22:04:00,76.0,47.7,29.85,NNW,338,0.2,0.2,37,0.00,,,0.00,WUHU216HW,2013-06-16 05:04:00,
2013-06-15 22:34:00,74.9,46.7,29.86,North,0,0.0,0.0,37,0.00,,,0.00,WUHU216HW,2013-06-16 05:34:00,
2013-06-15 23:04:00,74.3,46.3,29.87,NW,315,1.6,1.6,37,0.00,,,0.00,WUHU216HW,2013-06-16 06:04:00,
2013-06-15 23:34:00,73.1,45.1,29.87,NNW,338,0.4,0.4,37,0.00,,,0.00,WUHU216HW,2013-06-16 06:34:00,